CST,Max TemperatureF,Mean TemperatureF,Min TemperatureF,Max Dew PointF,MeanDew PointF,Min DewpointF,Max Humidity, Mean Humidity, Min Humidity, Max Sea Level PressureIn, Mean Sea Level PressureIn, Min Sea Level PressureIn, Max VisibilityMiles, Mean VisibilityMiles, Min VisibilityMiles, Max Wind SpeedMPH, Mean Wind SpeedMPH, Max Gust SpeedMPH,PrecipitationIn, CloudCover, Events, WindDirDegrees
2012-11-1,44,36,28,32,26,21,86,66,46,30.05,29.96,29.90,10,10,10,16,6,23,0.00,5,,345
2012-11-2,42,32,21,28,24,19,100,72,42,30.16,30.12,30.05,10,10,10,7,3,,0.00,2,,29
2012-11-3,39,36,32,28,27,25,80,72,61,30.23,30.20,30.16,10,10,10,8,4,,0.00,8,,80
2012-11-4,44,35,26,32,30,25,93,73,57,30.23,30.19,30.15,10,10,10,8,3,,0.00,6,,99
2012-11-5,41,37,33,32,30,28,81,73,65,30.21,30.13,29.95,10,10,10,12,6,,0.00,8,,134
2012-11-6,41,38,35,39,36,32,100,92,70,29.96,29.83,29.75,10,7,1,18,11,23,0.36,8,Rain,270
2012-11-7,41,38,35,36,35,34,100,89,76,30.11,30.06,29.97,10,10,10,9,5,,0.00,7,,263
2012-11-8,53,42,32,36,33,32,100,82,50,30.07,29.99,29.91,10,10,10,16,7,23,0.00,0,,182
2012-11-9,51,42,32,37,35,32,100,81,54,30.06,30.01,29.95,10,10,5,15,7,21,0.00,3,,67
2012-11-10,64,52,41,55,47,37,100,89,68,29.94,29.67,29.50,10,6,2,29,14,34,0.24,6,Rain,125
2012-11-11,55,40,23,54,33,14,100,89,64,29.90,29.73,29.52,10,9,2,20,12,25,0.10,8,Rain,265
2012-11-12,26,22,19,19,16,10,93,74,59,30.26,30.04,29.91,10,9,1,21,13,25,0.00,8,Snow,265
2012-11-13,41,29,17,28,21,16,100,74,45,30.36,30.31,30.27,10,10,7,12,6,,0.00,2,,190
2012-11-14,48,40,32,32,30,27,87,75,53,30.29,30.23,30.16,10,10,10,9,5,,0.00,3,,154
2012-11-15,51,38,24,32,28,14,87,65,47,30.44,30.25,30.13,10,10,10,17,6,16,0.00,3,,285
2012-11-16,42,30,17,28,20,14,100,71,39,30.49,30.42,30.34,10,10,10,9,2,,0.00,0,,144
2012-11-17,53,42,32,36,33,28,93,70,47,30.34,30.28,30.23,10,9,7,17,9,25,0.00,2,,161
2012-11-18,53,48,42,34,32,30,66,55,44,30.24,30.15,30.09,10,10,10,18,12,23,0.00,3,,163
2012-11-19,53,42,32,41,35,32,100,68,51,30.13,30.06,30.03,10,9,2,10,7,,0.00,5,,159
2012-11-20,50,38,26,39,32,27,100,88,50,30.16,30.11,30.06,10,6,0,7,1,,0.00,2,Fog,165
2012-11-21,59,46,32,41,36,32,100,65,45,30.06,29.90,29.72,10,10,5,13,7,20,0.00,0,,172
2012-11-22,59,41,23,41,35,18,100,72,51,29.91,29.71,29.61,10,8,1,28,15,37,0.00,3,Rain-Snow,244
2012-11-23,26,22,14,19,16,10,86,77,64,30.33,30.18,29.92,10,9,3,25,17,33,0.00,7,Snow,316
2012-11-24,28,17,6,19,13,5,100,78,59,30.32,30.09,29.80,10,10,0,10,5,,0.00,4,Snow,186
2012-11-25,30,27,24,23,21,16,86,76,64,30.11,29.94,29.79,10,10,10,15,8,21,0.00,8,Snow,286
2012-11-26,26,18,10,16,8,5,85,71,58,30.38,30.31,30.12,10,10,10,15,10,21,0.00,2,Snow,303
2012-11-27,32,22,12,23,16,9,100,75,59,30.33,30.18,30.07,10,10,10,15,7,16,0.00,5,,216
2012-11-28,32,24,17,25,22,18,100,78,64,30.33,30.23,30.10,10,10,10,12,6,,0.00,5,,236
2012-11-29,37,28,19,27,25,19,100,81,65,30.12,30.09,30.06,10,10,7,12,6,,0.00,1,,71
2012-11-30,33,32,32,32,29,27,100,89,80,30.19,30.13,30.09,10,7,3,14,9,16,0.00,8,,107